Terminal Aerodrome Forecast
Issued by NWS

Home | Current Version | Previous Version | Graphics & Text | Print | Product List | Glossary On
Versions: 1 2 3 4 5 6 7 8 9 10 11 12 13 14 15 16 17 18 19 20
000
FTUS43 KICT 021120
TAFHUT
TAF
KHUT 021120Z 0212/0312 VRB03KT 4SM BR SCT012 BKN250
     FM021500 14010KT P6SM SCT025 OVC250
     FM022200 16013KT P6SM SCT008 OVC020
     FM030100 18015G22KT 4SM -DZ OVC008=

USA.gov is the U.S. government's official web portal to all federal, state and local government web resources and services.